Time;durP1;ratioP1;P1;durP2;ratioP2;P2;SDS_P1;SDS_P2;PMS_P1;PMS_P2;Temp;Humidity;BMP_temperature;BMP_pressure;BME280_temperature;BME280_humidity;BME280_pressure;Samples;Min_cycle;Max_cycle;Signal;HPM_P1;HPM_P2
2022/07/13 00:01:49;;;;;;;14.02;6.68;;;;;;;21.88;61.13;101728.72;5052441;28;20045;-50
2022/07/13 00:04:15;;;;;;;14.10;6.22;;;;;;;21.83;61.21;101733.94;5051891;28;20411;-53
2022/07/13 00:06:42;;;;;;;15.77;6.22;;;;;;;21.85;59.50;101721.88;5056454;28;20124;-50
2022/07/13 00:09:09;;;;;;;11.35;6.07;;;;;;;21.84;59.67;101732.88;5056034;28;20045;-52
2022/07/13 00:11:35;;;;;;;13.30;6.10;;;;;;;21.80;59.82;101718.97;5056263;28;20041;-51
2022/07/13 00:14:02;;;;;;;15.70;6.40;;;;;;;21.81;60.03;101717.94;5056301;28;20049;-52
2022/07/13 00:16:29;;;;;;;16.45;6.13;;;;;;;21.89;60.42;101730.41;5056074;28;20045;-52
2022/07/13 00:18:56;;;;;;;16.67;6.60;;;;;;;21.93;60.11;101717.31;5063823;28;20082;-50
2022/07/13 00:21:22;;;;;;;16.60;5.97;;;;;;;21.95;60.73;101726.88;5075859;28;20097;-50
2022/07/13 00:23:50;;;;;;;14.57;5.95;;;;;;;21.96;61.01;101719.63;5076024;28;20056;-51
2022/07/13 00:26:17;;;;;;;15.88;6.15;;;;;;;21.98;60.82;101720.25;5075826;28;20060;-50
2022/07/13 00:28:44;;;;;;;16.20;6.40;;;;;;;21.95;61.27;101715.25;5075941;28;20072;-49
2022/07/13 00:31:10;;;;;;;19.98;6.60;;;;;;;21.90;60.88;101718.56;5074946;28;20036;-50
2022/07/13 00:33:38;;;;;;;15.57;6.68;;;;;;;21.85;60.54;101718.34;5075733;28;20036;-52
2022/07/13 00:36:05;;;;;;;14.30;6.00;;;;;;;21.82;61.00;101721.47;5075775;28;20044;-51
2022/07/13 00:38:31;;;;;;;13.52;6.13;;;;;;;21.83;60.69;101721.25;5075379;28;20045;-49
2022/07/13 00:40:58;;;;;;;14.25;6.22;;;;;;;21.83;61.16;101720.44;5075597;28;20045;-51
2022/07/13 00:43:25;;;;;;;14.65;6.65;;;;;;;21.77;61.03;101710.44;5075750;28;20483;-51
2022/07/13 00:45:52;;;;;;;13.77;6.32;;;;;;;21.66;61.37;101714.56;5075620;28;20067;-51
2022/07/13 00:48:19;;;;;;;13.70;6.38;;;;;;;21.60;61.58;101713.50;5075383;28;20036;-51
2022/07/13 00:50:46;;;;;;;13.13;6.45;;;;;;;21.65;61.79;101711.03;5075261;28;20398;-49
2022/07/13 00:53:14;;;;;;;17.08;6.10;;;;;;;21.65;61.97;101708.34;5075500;28;20045;-50
2022/07/13 00:55:40;;;;;;;12.55;6.30;;;;;;;21.63;61.72;101699.63;5075387;28;20087;-49
2022/07/13 00:58:08;;;;;;;14.50;6.00;;;;;;;21.61;61.76;101695.44;5074874;28;20053;-51
2022/07/13 01:00:36;;;;;;;15.48;5.72;;;;;;;21.60;61.73;101696.50;5074927;28;20044;-51
2022/07/13 01:03:03;;;;;;;16.58;6.10;;;;;;;21.57;61.73;101684.22;5074796;28;20047;-51
2022/07/13 01:05:30;;;;;;;15.50;6.15;;;;;;;21.60;61.56;101683.81;5075230;28;20044;-51
2022/07/13 01:07:57;;;;;;;14.82;6.75;;;;;;;21.63;61.38;101685.28;5074870;28;20066;-52
2022/07/13 01:10:25;;;;;;;14.32;5.78;;;;;;;21.53;61.64;101674.88;5075119;28;20055;-52
2022/07/13 01:12:52;;;;;;;14.45;6.35;;;;;;;21.50;61.55;101686.06;5075130;28;20405;-49
2022/07/13 01:15:21;;;;;;;16.98;5.78;;;;;;;21.54;61.42;101690.03;5074896;28;20410;-52
2022/07/13 01:17:48;;;;;;;13.73;5.85;;;;;;;21.56;61.42;101692.53;5074899;28;20052;-49
2022/07/13 01:20:17;;;;;;;15.20;6.30;;;;;;;21.51;61.37;101693.16;5074913;28;20055;-50
2022/07/13 01:22:45;;;;;;;15.35;6.43;;;;;;;21.52;61.92;101696.66;5074831;28;20048;-49
2022/07/13 01:25:15;;;;;;;13.60;5.88;;;;;;;21.52;62.20;101694.81;5075048;28;20502;-53
2022/07/13 01:27:43;;;;;;;13.10;6.30;;;;;;;21.53;61.68;101691.06;5074527;28;20040;-51
2022/07/13 01:30:10;;;;;;;14.32;6.13;;;;;;;21.44;61.60;101690.38;5074890;28;20049;-53
2022/07/13 01:32:46;;;;;;;15.43;6.40;;;;;;;21.38;61.90;101685.81;5074662;28;20040;-50
2022/07/13 01:35:15;;;;;;;14.35;5.93;;;;;;;21.44;61.88;101693.09;5074259;28;20055;-51
2022/07/13 01:37:44;;;;;;;14.55;6.72;;;;;;;21.44;62.07;101690.38;5074690;28;20048;-54
2022/07/13 01:40:12;;;;;;;12.43;5.88;;;;;;;21.48;62.23;101682.75;5074681;28;20045;-52
2022/07/13 01:42:43;;;;;;;17.75;6.22;;;;;;;21.44;61.63;101676.88;5074472;28;20094;-53
2022/07/13 01:45:11;;;;;;;15.65;6.70;;;;;;;21.47;62.01;101665.72;5074625;28;20498;-51
2022/07/13 01:47:40;;;;;;;12.43;6.07;;;;;;;21.42;61.99;101646.56;5074493;28;20486;-52
2022/07/13 01:50:09;;;;;;;16.27;6.43;;;;;;;21.47;61.71;101635.22;5072863;28;20045;-50
2022/07/13 01:52:36;;;;;;;13.57;5.75;;;;;;;21.49;61.37;101643.13;5071405;28;20449;-53
2022/07/13 01:55:04;;;;;;;19.08;6.30;;;;;;;21.42;61.18;101646.56;5075873;28;20049;-52
2022/07/13 01:57:32;;;;;;;12.02;5.60;;;;;;;21.45;60.59;101648.09;5073848;28;20521;-51
2022/07/13 02:00:01;;;;;;;15.57;5.90;;;;;;;21.48;60.97;101653.06;5073866;28;20410;-49
2022/07/13 02:02:41;;;;;;;12.85;6.05;;;;;;;21.44;61.04;101649.91;5073683;28;20064;-49
2022/07/13 02:05:13;;;;;;;17.27;6.03;;;;;;;21.38;61.17;101647.19;5072068;28;20128;-51
2022/07/13 02:07:40;;;;;;;15.60;5.65;;;;;;;21.40;61.24;101645.13;5074076;28;20068;-51
2022/07/13 02:10:10;;;;;;;14.60;6.10;;;;;;;21.41;60.59;101633.28;5073426;28;20626;-49
2022/07/13 02:12:38;;;;;;;16.55;5.78;;;;;;;21.39;61.04;101630.81;5073985;28;20202;-52
2022/07/13 02:15:07;;;;;;;18.55;6.15;;;;;;;21.36;60.89;101625.00;5073660;28;20095;-51
2022/07/13 02:17:34;;;;;;;13.25;5.90;;;;;;;21.33;60.89;101622.69;5073851;28;20044;-49
2022/07/13 02:20:01;;;;;;;16.63;5.75;;;;;;;21.39;60.62;101629.97;5073371;28;20444;-49
2022/07/13 02:22:43;;;;;;;13.00;5.82;;;;;;;21.40;60.54;101623.53;5073738;28;20379;-48
2022/07/13 02:25:12;;;;;;;13.48;5.60;;;;;;;21.36;60.10;101625.81;5073705;28;20045;-49
2022/07/13 02:27:41;;;;;;;11.77;5.70;;;;;;;21.38;60.49;101631.00;5073140;28;20036;-49
2022/07/13 02:30:11;;;;;;;15.52;5.65;;;;;;;21.37;60.30;101632.84;5071750;28;20542;-48
2022/07/13 02:32:38;;;;;;;14.43;4.97;;;;;;;21.31;60.55;101627.47;5073692;28;20049;-51
2022/07/13 02:35:05;;;;;;;19.35;5.70;;;;;;;21.31;59.92;101627.47;5073814;28;20052;-52
2022/07/13 02:37:33;;;;;;;10.50;5.18;;;;;;;21.31;60.05;101619.38;5073541;28;20037;-49
2022/07/13 02:39:59;;;;;;;18.42;5.90;;;;;;;21.28;60.04;101618.75;5073556;28;20371;-50
2022/07/13 02:42:26;;;;;;;12.55;5.40;;;;;;;21.34;60.24;101613.53;5073299;28;20086;-51
2022/07/13 02:44:53;;;;;;;12.98;5.20;;;;;;;21.34;60.33;101616.25;5073525;28;20068;-49
2022/07/13 02:47:20;;;;;;;13.80;5.20;;;;;;;21.26;60.01;101611.88;5072399;28;20490;-51
2022/07/13 02:49:47;;;;;;;11.93;5.18;;;;;;;21.29;59.97;101604.19;5073428;28;20056;-49
2022/07/13 02:52:15;;;;;;;14.95;5.40;;;;;;;21.24;59.71;101614.78;5073355;28;20127;-52
2022/07/13 02:54:43;;;;;;;11.73;5.00;;;;;;;21.18;59.50;101602.09;5073513;28;20075;-51
2022/07/13 02:57:10;;;;;;;13.00;4.95;;;;;;;21.23;59.70;101605.03;5073104;28;20126;-51
2022/07/13 02:59:37;;;;;;;14.48;4.88;;;;;;;21.21;59.54;101601.72;5073286;28;20133;-50
2022/07/13 03:02:06;;;;;;;10.63;4.60;;;;;;;21.23;60.28;101601.50;5088946;28;20048;-49
2022/07/13 03:04:35;;;;;;;10.52;5.38;;;;;;;21.17;60.13;101591.50;5072808;28;20048;-48
2022/07/13 03:07:02;;;;;;;13.23;5.05;;;;;;;21.15;60.03;101601.69;5073312;28;20135;-49
2022/07/13 03:09:30;;;;;;;11.73;5.18;;;;;;;21.22;60.28;101600.66;5073287;28;20052;-52
2022/07/13 03:11:57;;;;;;;12.70;5.60;;;;;;;21.17;59.94;101594.22;5073337;28;20501;-50
2022/07/13 03:14:24;;;;;;;14.65;5.10;;;;;;;21.22;59.72;101594.44;5073144;28;20072;-52
2022/07/13 03:16:51;;;;;;;12.05;5.18;;;;;;;21.16;59.89;101592.56;5088932;28;20048;-49
2022/07/13 03:19:18;;;;;;;11.27;5.15;;;;;;;21.12;59.81;101602.94;5073103;28;20107;-52
2022/07/13 03:21:45;;;;;;;10.18;4.70;;;;;;;21.17;60.38;101596.91;5072828;28;20036;-50
2022/07/13 03:24:12;;;;;;;13.63;5.13;;;;;;;21.18;59.99;101603.97;5073102;28;20048;-50
2022/07/13 03:26:38;;;;;;;12.55;5.03;;;;;;;21.20;60.00;101594.63;5072947;28;20457;-50
2022/07/13 03:29:05;;;;;;;12.68;4.82;;;;;;;21.15;60.36;101598.97;5071546;28;20502;-50
2022/07/13 03:31:32;;;;;;;11.50;5.10;;;;;;;21.13;60.52;101604.56;5072819;28;20040;-49
2022/07/13 03:33:59;;;;;;;12.27;5.10;;;;;;;21.08;60.26;101594.41;5071878;28;20056;-49
2022/07/13 03:36:26;;;;;;;16.40;5.68;;;;;;;21.07;60.46;101598.13;5073174;28;20049;-50
2022/07/13 03:38:54;;;;;;;13.10;5.40;;;;;;;21.08;59.94;101599.81;5073299;28;20103;-50
2022/07/13 03:41:21;;;;;;;14.07;5.15;;;;;;;21.11;60.27;101592.34;5075270;28;20086;-49
2022/07/13 03:43:48;;;;;;;12.45;5.47;;;;;;;21.12;60.11;101591.28;5076687;28;20524;-50
2022/07/13 03:46:15;;;;;;;11.10;4.95;;;;;;;21.13;60.05;101588.41;5076812;28;20079;-50
2022/07/13 03:48:41;;;;;;;13.32;5.22;;;;;;;21.11;60.20;101595.03;5076349;28;20040;-49
2022/07/13 03:51:09;;;;;;;13.25;5.45;;;;;;;21.12;60.57;101588.59;5076799;28;20048;-55
2022/07/13 03:53:37;;;;;;;12.85;5.07;;;;;;;21.07;60.49;101586.53;5090879;28;20056;-51
2022/07/13 03:56:05;;;;;;;15.95;5.30;;;;;;;21.14;60.36;101590.06;5058796;28;20056;-52
2022/07/13 03:58:31;;;;;;;12.50;5.10;;;;;;;;;;5055894;28;20140;-51
2022/07/13 04:00:58;;;;;;;17.40;5.07;;;;;;;21.14;61.08;101587.38;5055576;28;20049;-52
2022/07/13 04:03:25;;;;;;;16.35;5.20;;;;;;;21.11;61.06;101584.25;5055766;28;20052;-52
2022/07/13 04:05:53;;;;;;;11.82;5.10;;;;;;;21.05;60.92;101594.81;5056117;28;20056;-52
2022/07/13 04:08:20;;;;;;;12.15;5.47;;;;;;;21.02;60.53;101589.00;5056339;28;20045;-51
2022/07/13 04:10:47;;;;;;;14.98;5.00;;;;;;;21.11;60.48;101595.88;5056200;28;20106;-53
2022/07/13 04:13:15;;;;;;;14.07;5.47;;;;;;;21.09;60.41;101589.84;5056335;28;20041;-51
2022/07/13 04:15:42;;;;;;;15.20;5.18;;;;;;;21.10;60.52;101596.88;5055871;28;20048;-52
2022/07/13 04:18:09;;;;;;;16.20;5.35;;;;;;;21.14;60.63;101595.47;5071433;28;20053;-52
2022/07/13 04:20:36;;;;;;;12.90;5.20;;;;;;;21.03;60.25;101593.38;5055768;28;20124;-50
2022/07/13 04:23:03;;;;;;;17.17;4.95;;;;;;;;;;5056009;28;20069;-52
2022/07/13 04:25:31;;;;;;;15.05;5.13;;;;;;;21.15;60.74;101585.50;5055728;28;20491;-50
2022/07/13 04:27:59;;;;;;;26.58;7.38;;;;;;;21.08;60.89;101582.78;5071260;28;20068;-50
2022/07/13 04:30:27;;;;;;;14.27;5.57;;;;;;;21.09;61.03;101587.97;5055497;28;20499;-52
2022/07/13 04:32:55;;;;;;;15.73;4.88;;;;;;;21.12;60.71;101584.06;5070916;28;20429;-51
2022/07/13 04:35:22;;;;;;;14.38;5.00;;;;;;;21.05;60.85;101580.50;5055274;28;20044;-51
2022/07/13 04:37:52;;;;;;;14.00;5.53;;;;;;;21.05;60.81;101575.94;5055711;28;20052;-51
2022/07/13 04:40:20;;;;;;;11.55;5.78;;;;;;;21.00;60.96;101580.28;5071069;28;20044;-52
2022/07/13 04:42:47;;;;;;;15.02;5.13;;;;;;;21.06;60.38;101574.88;5075524;28;20037;-53
2022/07/13 04:45:18;;;;;;;11.38;4.93;;;;;;;;;;5075713;28;20483;-51
2022/07/13 04:47:48;;;;;;;14.95;5.18;;;;;;;21.07;60.34;101579.25;5089642;28;20415;-51
2022/07/13 04:50:16;;;;;;;15.32;5.38;;;;;;;21.13;60.59;101582.19;5074903;28;20383;-51
2022/07/13 04:52:43;;;;;;;11.95;5.10;;;;;;;21.18;59.89;101585.09;5075615;28;20544;-51
2022/07/13 04:55:11;;;;;;;13.77;4.80;;;;;;;21.17;59.99;101584.25;5075653;28;20048;-52
2022/07/13 04:57:37;;;;;;;15.13;4.85;;;;;;;21.20;60.09;101583.03;5075001;28;20063;-49
2022/07/13 05:00:07;;;;;;;19.88;5.35;;;;;;;21.24;60.28;101584.28;5075420;28;20064;-54
2022/07/13 05:02:35;;;;;;;14.57;5.20;;;;;;;21.21;60.64;101576.56;5073467;28;20048;-52
2022/07/13 05:05:04;;;;;;;15.75;5.47;;;;;;;21.24;60.04;101582.41;5074627;28;20130;-53
2022/07/13 05:07:31;;;;;;;15.32;5.30;;;;;;;21.27;60.38;101573.06;5057088;28;20514;-53
2022/07/13 05:10:00;;;;;;;12.13;4.88;;;;;;;21.24;60.64;101565.38;5073724;28;20049;-50
2022/07/13 05:12:27;;;;;;;15.63;4.97;;;;;;;21.19;60.55;101562.47;5074993;28;20044;-52
2022/07/13 05:14:57;;;;;;;14.65;4.90;;;;;;;21.12;60.46;101561.63;5073883;28;20047;-48
2022/07/13 05:17:26;;;;;;;16.15;4.90;;;;;;;21.16;60.18;101566.41;5073920;28;20045;-54
2022/07/13 05:19:54;;;;;;;12.38;4.72;;;;;;;21.20;60.38;101564.13;5075199;28;20055;-51
2022/07/13 05:22:20;;;;;;;16.80;5.80;;;;;;;21.25;60.45;101572.47;5073684;28;20436;-50
2022/07/13 05:24:47;;;;;;;9.55;4.80;;;;;;;21.23;60.27;101561.03;5074944;28;20048;-51
2022/07/13 05:27:14;;;;;;;12.63;4.88;;;;;;;21.26;60.10;101564.13;5075010;28;20102;-52
2022/07/13 05:29:41;;;;;;;15.98;4.63;;;;;;;21.31;60.58;101568.94;5073614;28;20071;-52
2022/07/13 05:32:08;;;;;;;12.27;4.40;;;;;;;21.33;60.47;101566.84;5074183;28;20064;-51
2022/07/13 05:34:35;;;;;;;11.60;4.35;;;;;;;21.42;60.14;101568.31;5073426;28;20113;-50
2022/07/13 05:37:04;;;;;;;12.45;4.68;;;;;;;21.42;60.16;101572.88;5073530;28;20072;-51
2022/07/13 05:39:31;;;;;;;12.10;5.10;;;;;;;21.47;59.80;101579.34;5074386;28;20502;-52
2022/07/13 05:41:59;;;;;;;14.85;4.80;;;;;;;21.44;59.98;101568.94;5089877;28;20040;-53
2022/07/13 05:44:26;;;;;;;14.35;4.65;;;;;;;21.47;60.43;101571.25;5074210;28;20045;-50
2022/07/13 05:46:54;;;;;;;13.25;4.57;;;;;;;21.49;60.62;101571.06;5074431;28;20048;-49
2022/07/13 05:49:21;;;;;;;13.80;4.80;;;;;;;21.49;60.67;101579.16;5074163;28;20051;-49
2022/07/13 05:51:48;;;;;;;13.82;5.15;;;;;;;21.55;60.58;101574.78;5074442;28;20049;-49
2022/07/13 05:54:14;;;;;;;20.90;5.18;;;;;;;21.49;60.74;101573.75;5072909;28;20052;-50
2022/07/13 05:57:02;;;;;;;12.98;4.70;;;;;;;21.50;60.25;101578.09;5054797;28;20083;-51
2022/07/13 05:59:29;;;;;;;15.98;4.80;;;;;;;21.59;60.78;101576.03;5036142;28;20052;-48
2022/07/13 06:01:55;;;;;;;12.40;4.50;;;;;;;21.60;61.12;101566.91;5052413;28;20049;-50
2022/07/13 06:04:22;;;;;;;12.52;4.82;;;;;;;21.60;60.03;101567.72;5068496;28;20048;-51
2022/07/13 06:06:49;;;;;;;12.70;4.88;;;;;;;21.74;60.46;101573.13;5053969;28;20076;-51
2022/07/13 06:09:15;;;;;;;14.05;4.32;;;;;;;21.76;59.98;101569.19;5069568;28;20040;-51
2022/07/13 06:11:42;;;;;;;14.35;4.60;;;;;;;21.90;59.61;101566.47;5053755;28;20102;-49
2022/07/13 06:14:09;;;;;;;13.50;4.65;;;;;;;22.01;58.48;101568.53;5054186;28;20145;-51
2022/07/13 06:16:36;;;;;;;9.75;4.30;;;;;;;22.08;59.68;101560.44;5053808;28;20057;-50
2022/07/13 06:19:03;;;;;;;14.27;4.20;;;;;;;22.08;59.17;101563.13;5053732;28;20049;-51
2022/07/13 06:21:29;;;;;;;13.45;4.50;;;;;;;22.12;59.27;101557.09;5053875;28;20056;-49
2022/07/13 06:23:56;;;;;;;9.75;4.68;;;;;;;22.18;58.73;101550.84;5053380;28;20033;-51
2022/07/13 06:26:23;;;;;;;12.18;4.68;;;;;;;22.17;58.55;101554.56;5053560;28;20132;-51
2022/07/13 06:28:50;;;;;;;13.05;4.43;;;;;;;22.23;58.34;101558.34;5053569;28;20136;-50
2022/07/13 06:31:19;;;;;;;17.38;4.68;;;;;;;22.27;58.45;101564.19;5052674;28;20120;-51
2022/07/13 06:33:51;;;;;;;10.75;4.30;;;;;;;22.27;58.61;101565.00;5069095;28;20041;-50
2022/07/13 06:36:18;;;;;;;13.40;4.40;;;;;;;22.27;58.75;101567.69;5053670;28;20099;-50
2022/07/13 06:38:45;;;;;;;13.85;4.50;;;;;;;22.33;58.23;101574.13;5055320;28;20119;-51
2022/07/13 06:41:12;;;;;;;12.20;3.90;;;;;;;22.31;59.09;101568.94;5073420;28;20048;-51
2022/07/13 06:43:40;;;;;;;10.88;4.45;;;;;;;22.35;59.40;101567.47;5073183;28;20044;-50
2022/07/13 06:46:07;;;;;;;10.55;4.22;;;;;;;22.39;58.12;101571.41;5073181;28;20044;-52
2022/07/13 06:48:35;;;;;;;14.38;4.38;;;;;;;22.44;57.93;101568.06;5072980;28;20040;-49
2022/07/13 06:51:03;;;;;;;12.18;4.40;;;;;;;22.58;58.33;101560.75;5073667;28;20127;-50
2022/07/13 06:53:30;;;;;;;14.55;4.22;;;;;;;22.58;57.65;101568.84;5073342;28;20044;-51
2022/07/13 06:55:57;;;;;;;16.48;4.07;;;;;;;22.65;56.82;101569.66;5069889;28;20044;-52
2022/07/13 06:58:23;;;;;;;13.63;4.30;;;;;;;22.70;57.28;101564.44;5080644;28;20072;-52
2022/07/13 07:00:50;;;;;;;13.85;4.18;;;;;;;22.86;56.48;101559.56;5064475;28;20437;-52
2022/07/13 07:03:18;;;;;;;16.42;4.40;;;;;;;23.01;57.11;101554.69;5052153;28;20045;-52
2022/07/13 07:05:45;;;;;;;13.73;4.30;;;;;;;23.09;56.11;101556.38;5052938;28;20110;-51
2022/07/13 07:08:13;;;;;;;13.45;4.30;;;;;;;23.12;56.54;101558.63;5067608;28;20497;-52
2022/07/13 07:10:39;;;;;;;19.30;4.68;;;;;;;23.29;57.01;101551.63;5064742;28;20048;-51
2022/07/13 07:13:06;;;;;;;11.98;4.60;;;;;;;23.45;55.08;101546.72;5066227;28;20056;-53
2022/07/13 07:15:33;;;;;;;11.98;4.60;;;;;;;23.40;55.36;101558.22;5076679;28;20049;-51
2022/07/13 07:18:00;;;;;;;18.50;4.63;;;;;;;23.49;56.29;101551.50;5072020;28;20056;-53
2022/07/13 07:20:29;;;;;;;10.98;4.20;;;;;;;23.53;56.00;101558.13;5077128;28;20445;-53
2022/07/13 07:22:56;;;;;;;14.85;3.83;;;;;;;23.59;56.41;101545.56;5074877;28;20095;-52
2022/07/13 07:25:23;;;;;;;11.95;4.22;;;;;;;23.66;56.04;101551.75;5075729;28;20051;-55
2022/07/13 07:27:50;;;;;;;16.77;4.68;;;;;;;23.78;55.74;101549.16;5070974;28;20072;-54
2022/07/13 07:30:17;;;;;;;11.43;3.88;;;;;;;23.74;53.85;101547.97;5070749;28;20068;-53
2022/07/13 07:32:44;;;;;;;10.77;4.22;;;;;;;23.91;50.61;101553.66;5075978;28;20091;-54
2022/07/13 07:35:11;;;;;;;14.98;4.18;;;;;;;24.10;50.65;101549.06;5075417;28;20048;-53
2022/07/13 07:37:39;;;;;;;14.35;3.90;;;;;;;24.25;49.45;101546.00;5075022;28;20102;-54
2022/07/13 07:40:07;;;;;;;13.13;3.72;;;;;;;24.37;48.64;101544.19;5076293;28;20047;-54
2022/07/13 07:42:35;;;;;;;13.02;3.53;;;;;;;24.52;48.27;101541.97;5072386;28;20109;-53
2022/07/13 07:45:03;;;;;;;13.93;4.15;;;;;;;24.55;49.08;101539.84;5068467;28;20040;-53
2022/07/13 07:47:30;;;;;;;12.88;3.63;;;;;;;24.67;48.77;101541.56;5073788;28;20048;-53
2022/07/13 07:49:57;;;;;;;22.67;4.20;;;;;;;24.81;48.36;101553.06;5075558;28;20048;-53
2022/07/13 07:52:24;;;;;;;13.75;4.60;;;;;;;24.84;47.51;101547.16;5074907;28;20040;-55
2022/07/13 07:55:11;;;;;;;19.65;3.97;;;;;;;24.95;47.96;101550.16;5072252;28;20060;-53
2022/07/13 07:57:45;;;;;;;14.02;4.05;;;;;;;24.94;48.25;101551.22;5075461;28;20524;-52
2022/07/13 08:00:12;;;;;;;19.67;3.92;;;;;;;25.02;48.13;101537.34;5071858;28;20136;-55
2022/07/13 08:02:40;;;;;;;16.63;3.92;;;;;;;25.23;46.63;101544.09;5075631;28;20071;-54
2022/07/13 08:05:08;;;;;;;16.88;3.67;;;;;;;25.31;46.90;101546.53;5074573;28;20048;-55
2022/07/13 08:07:39;;;;;;;10.13;3.40;;;;;;;25.41;45.62;101535.94;5075297;28;20075;-55
2022/07/13 08:10:06;;;;;;;15.13;3.80;;;;;;;25.57;45.03;101530.84;5075142;28;20094;-53
2022/07/13 08:12:41;;;;;;;12.73;3.35;;;;;;;25.72;43.44;101536.63;5075346;28;20124;-54
2022/07/13 08:16:18;;;;;;;10.60;3.40;;;;;;;25.81;42.06;101534.41;5074986;28;20444;-54
2022/07/13 08:18:41;;;;;;;21.25;3.85;;;;;;;25.81;42.99;101535.25;5074700;28;20066;-54
2022/07/13 08:21:28;;;;;;;15.98;3.40;;;;;;;25.90;41.77;101534.88;5073546;28;20045;-53
2022/07/13 08:23:54;;;;;;;15.30;3.72;;;;;;;25.92;40.47;101532.75;5074178;28;20040;-54
2022/07/13 08:26:25;;;;;;;14.80;3.58;;;;;;;25.97;40.66;101544.56;5074050;28;20071;-56
2022/07/13 08:28:52;;;;;;;13.25;3.58;;;;;;;25.92;41.20;101543.59;5086469;28;20056;-53
2022/07/13 08:31:21;;;;;;;9.80;3.20;;;;;;;25.94;40.13;101539.63;5074201;28;20073;-53
2022/07/13 08:39:24;;;;;;;9.63;3.45;;;;;;;26.21;39.80;101523.66;5067191;28;20123;-54
2022/07/13 08:41:50;;;;;;;12.75;3.30;;;;;;;26.30;39.89;101540.38;5075052;28;20405;-54
2022/07/13 08:44:18;;;;;;;19.35;5.28;;;;;;;26.34;38.22;101528.00;5074989;28;20413;-54
2022/07/13 08:46:46;;;;;;;11.02;3.42;;;;;;;26.42;37.80;101535.75;5074860;28;20052;-54
2022/07/13 08:49:13;;;;;;;10.43;3.53;;;;;;;26.47;38.04;101526.88;5073621;28;20052;-54
2022/07/13 08:51:43;;;;;;;13.50;3.38;;;;;;;26.55;37.23;101526.50;5073389;28;20044;-53
2022/07/13 08:54:10;;;;;;;13.07;3.38;;;;;;;26.55;37.20;101522.94;5074485;28;20052;-53
2022/07/13 08:56:36;;;;;;;10.98;3.40;;;;;;;26.63;36.95;101528.03;5074404;28;20101;-54
2022/07/13 08:59:03;;;;;;;14.00;3.88;;;;;;;26.71;36.81;101535.00;5074553;28;20044;-52
2022/07/13 09:01:31;;;;;;;12.00;3.88;;;;;;;26.72;37.27;101531.19;5074779;28;20040;-54
2022/07/13 09:08:19;;;;;;;12.02;3.88;;;;;;;26.91;37.38;101518.22;5073421;28;20083;-54
2022/07/13 09:10:59;;;;;;;10.52;3.70;;;;;;;27.10;37.07;101524.25;5056326;28;20099;-54
2022/07/13 09:13:38;;;;;;;12.32;3.88;;;;;;;27.09;36.70;101514.47;5074457;28;20044;-55
2022/07/13 09:18:51;;;;;;;13.63;3.65;;;;;;;27.02;36.75;101521.94;5109096;27;20368;-53
2022/07/13 09:21:20;;;;;;;23.48;4.57;;;;;;;27.15;38.45;101518.91;5110746;28;20079;-54
2022/07/13 09:23:54;;;;;;;12.73;4.60;;;;;;;27.16;38.82;101525.97;5110255;28;20502;-54
2022/07/13 09:26:21;;;;;;;17.85;3.95;;;;;;;27.31;37.58;101526.28;5090326;28;20052;-54
2022/07/13 09:28:50;;;;;;;12.02;4.03;;;;;;;27.48;37.06;101522.72;5089866;28;20498;-54
2022/07/13 09:31:18;;;;;;;16.05;4.45;;;;;;;27.47;36.72;101523.78;5089373;28;20052;-54
2022/07/13 09:33:46;;;;;;;16.80;4.10;;;;;;;27.32;37.01;101521.66;5098590;28;20390;-55
2022/07/13 09:36:16;;;;;;;12.75;4.60;;;;;;;27.27;36.44;101521.56;5110380;28;20058;-54
2022/07/13 09:38:45;;;;;;;12.67;4.00;;;;;;;27.19;37.25;101526.31;5109539;28;20485;-54
2022/07/13 09:47:00;;;;;;;19.33;4.03;;;;;;;27.39;36.95;101528.59;5110387;28;20048;-54
2022/07/13 09:49:41;;;;;;;14.27;4.45;;;;;;;27.47;37.34;101529.25;5111112;28;20044;-54
2022/07/13 09:52:11;;;;;;;13.90;4.40;;;;;;;27.40;38.00;101529.44;5111035;28;20040;-53
2022/07/13 09:54:39;;;;;;;15.57;4.10;;;;;;;27.41;38.01;101543.88;5111169;28;20040;-54
2022/07/13 09:57:09;;;;;;;10.25;3.92;;;;;;;27.33;36.95;101543.19;5104854;28;20196;-54
2022/07/13 09:59:38;;;;;;;9.40;4.05;;;;;;;27.26;37.37;101536.25;5090467;28;20054;-55
2022/07/13 10:02:05;;;;;;;14.10;4.00;;;;;;;27.17;37.88;101528.47;5089752;28;20048;-56
2022/07/13 10:04:32;;;;;;;13.25;4.05;;;;;;;26.98;38.73;101538.75;5089813;28;20045;-55
2022/07/13 10:07:16;;;;;;;11.30;4.10;;;;;;;26.95;38.48;101539.25;5090179;28;20506;-55
2022/07/13 10:09:43;;;;;;;13.05;4.20;;;;;;;26.86;38.95;101534.44;5090419;28;20048;-55
2022/07/13 10:12:11;;;;;;;12.88;4.50;;;;;;;26.84;39.25;101542.84;5090469;28;20109;-54
2022/07/13 10:14:38;;;;;;;14.90;4.47;;;;;;;26.82;38.85;101528.66;5090264;28;20040;-54
2022/07/13 10:17:09;;;;;;;13.20;3.90;;;;;;;26.92;38.77;101541.63;5090302;28;20162;-55
2022/07/13 10:19:51;;;;;;;15.73;4.83;;;;;;;26.95;38.37;101543.88;5089981;28;20040;-54
2022/07/13 10:22:21;;;;;;;15.32;3.85;;;;;;;26.91;38.83;101537.28;5090201;28;20050;-54
2022/07/13 10:24:52;;;;;;;12.55;4.03;;;;;;;26.89;39.67;101540.22;5089069;28;20053;-54
2022/07/13 10:27:26;;;;;;;17.38;4.20;;;;;;;26.92;40.09;101544.34;5090090;28;20036;-55
2022/07/13 10:29:57;;;;;;;12.70;4.25;;;;;;;27.07;38.90;101544.66;5090070;28;20137;-56
2022/07/13 10:32:27;;;;;;;19.38;4.43;;;;;;;27.26;38.97;101549.84;5090055;28;20056;-55
2022/07/13 10:35:09;;;;;;;16.10;4.35;;;;;;;27.22;39.58;101551.44;5089329;28;20078;-55
2022/07/13 10:40:34;;;;;;;17.65;4.10;;;;;;;27.31;40.16;101563.59;5110993;27;20133;-55
2022/07/13 10:45:40;;;;;;;14.40;3.65;;;;;;;27.21;39.24;101534.25;5131488;27;20128;-52
2022/07/13 10:48:11;;;;;;;11.98;3.65;;;;;;;27.06;39.84;101545.69;5111045;28;20051;-54
2022/07/13 10:50:47;;;;;;;13.27;3.60;;;;;;;27.06;39.89;101545.69;5111146;28;20050;-54
2022/07/13 10:53:16;;;;;;;14.65;3.67;;;;;;;27.13;40.08;101545.56;5092970;28;20085;-54
2022/07/13 10:55:46;;;;;;;18.08;3.92;;;;;;;27.10;41.05;101549.56;5093358;28;20044;-52
2022/07/13 10:58:43;;;;;;;9.13;3.60;;;;;;;27.23;42.10;101536.72;5091136;28;20048;-57
2022/07/13 11:01:33;;;;;;;13.55;3.83;;;;;;;27.39;41.07;101536.75;5092441;28;20789;-55
2022/07/13 11:04:00;;;;;;;10.23;3.55;;;;;;;27.52;40.85;101530.19;5088972;28;20079;-54
2022/07/13 11:06:28;;;;;;;14.90;3.90;;;;;;;27.87;40.50;101547.28;5090206;28;20056;-55
2022/07/13 11:09:18;;;;;;;13.30;3.92;;;;;;;27.94;39.47;101545.25;5090493;28;20052;-54
2022/07/13 11:11:48;;;;;;;15.65;3.63;;;;;;;28.07;39.59;101539.44;5072078;28;20045;-55
2022/07/13 11:17:21;;;;;;;17.02;3.50;;;;;;;28.72;38.83;101545.16;5111950;27;20371;-54
2022/07/13 11:19:51;;;;;;;7.82;3.15;;;;;;;29.16;37.72;101536.03;5109351;28;20085;-54
2022/07/13 11:22:18;;;;;;;12.73;3.60;;;;;;;29.33;36.98;101534.03;5111100;28;20097;-54
2022/07/13 11:25:28;;;;;;;15.45;3.50;;;;;;;29.36;38.33;101529.94;5109781;28;20047;-54
2022/07/13 11:27:58;;;;;;;10.63;3.80;;;;;;;29.46;37.03;101530.03;5110527;28;20048;-53
2022/07/13 11:30:29;;;;;;;13.40;3.53;;;;;;;29.47;36.70;101529.75;5108803;28;20050;-54
2022/07/13 11:32:56;;;;;;;11.18;3.15;;;;;;;29.40;35.50;101526.44;5109663;28;20062;-54
2022/07/13 11:35:24;;;;;;;12.68;3.30;;;;;;;29.46;35.68;101522.63;5110586;28;20370;-54
2022/07/13 11:37:52;;;;;;;8.95;2.75;;;;;;;29.41;35.17;101521.78;5110688;28;20047;-54
2022/07/13 11:40:31;;;;;;;7.88;3.30;;;;;;;29.47;35.92;101523.44;5110682;28;20055;-54
2022/07/13 11:43:00;;;;;;;13.43;3.08;;;;;;;29.33;35.17;101528.56;5110348;28;20433;-54
2022/07/13 11:45:30;;;;;;;11.02;3.15;;;;;;;29.24;35.91;101514.53;5110546;28;20066;-54
2022/07/13 11:48:01;;;;;;;12.05;2.90;;;;;;;29.15;36.00;101527.03;5110639;28;20056;-54
2022/07/13 11:50:50;;;;;;;9.43;2.72;;;;;;;29.22;36.96;101519.44;5109070;28;20036;-54
2022/07/13 11:53:32;;;;;;;17.45;3.33;;;;;;;29.27;35.77;101515.91;5110138;28;20581;-55
2022/07/13 11:56:08;;;;;;;9.10;3.05;;;;;;;29.12;36.53;101505.66;5110411;28;20044;-55